sensor_id;sensor_type;location;lat;lon;timestamp;temperature;humidity
19365;DHT22;9818;48.382;10.850;2022-12-07T00:01:08;3.70;99.90
19365;DHT22;9818;48.382;10.850;2022-12-07T00:03:37;3.70;99.90
19365;DHT22;9818;48.382;10.850;2022-12-07T00:06:07;3.60;99.90
19365;DHT22;9818;48.382;10.850;2022-12-07T00:08:37;3.70;99.90
19365;DHT22;9818;48.382;10.850;2022-12-07T00:11:06;3.60;99.90
19365;DHT22;9818;48.382;10.850;2022-12-07T00:13:35;3.60;99.90
19365;DHT22;9818;48.382;10.850;2022-12-07T00:16:05;3.60;99.90
19365;DHT22;9818;48.382;10.850;2022-12-07T00:18:36;3.50;99.90
19365;DHT22;9818;48.382;10.850;2022-12-07T00:21:06;3.60;99.90
19365;DHT22;9818;48.382;10.850;2022-12-07T00:23:34;3.70;99.90
19365;DHT22;9818;48.382;10.850;2022-12-07T00:26:03;3.60;99.90
19365;DHT22;9818;48.382;10.850;2022-12-07T00:28:32;3.70;99.90
19365;DHT22;9818;48.382;10.850;2022-12-07T00:31:02;3.70;99.90
19365;DHT22;9818;48.382;10.850;2022-12-07T00:33:31;3.60;99.90
19365;DHT22;9818;48.382;10.850;2022-12-07T00:36:03;3.60;99.90
19365;DHT22;9818;48.382;10.850;2022-12-07T00:38:33;3.50;99.90
19365;DHT22;9818;48.382;10.850;2022-12-07T00:41:03;3.50;99.90
19365;DHT22;9818;48.382;10.850;2022-12-07T00:43:31;3.50;99.90
19365;DHT22;9818;48.382;10.850;2022-12-07T00:46:00;3.50;99.90
19365;DHT22;9818;48.382;10.850;2022-12-07T00:48:29;3.50;99.90
19365;DHT22;9818;48.382;10.850;2022-12-07T00:50:57;3.50;99.90
19365;DHT22;9818;48.382;10.850;2022-12-07T00:53:28;3.50;99.90
19365;DHT22;9818;48.382;10.850;2022-12-07T00:55:57;3.50;99.90
19365;DHT22;9818;48.382;10.850;2022-12-07T00:58:25;3.50;99.90
19365;DHT22;9818;48.382;10.850;2022-12-07T01:00:54;3.40;99.90
19365;DHT22;9818;48.382;10.850;2022-12-07T01:03:27;3.40;99.90
19365;DHT22;9818;48.382;10.850;2022-12-07T01:05:56;3.40;99.90
19365;DHT22;9818;48.382;10.850;2022-12-07T01:08:28;3.40;99.90
19365;DHT22;9818;48.382;10.850;2022-12-07T01:20:36;3.20;99.90
19365;DHT22;9818;48.382;10.850;2022-12-07T01:23:05;3.20;99.90
19365;DHT22;9818;48.382;10.850;2022-12-07T01:25:34;3.20;99.90
19365;DHT22;9818;48.382;10.850;2022-12-07T01:28:03;3.20;99.90
19365;DHT22;9818;48.382;10.850;2022-12-07T01:30:32;3.10;99.90
19365;DHT22;9818;48.382;10.850;2022-12-07T01:33:00;3.20;99.90
19365;DHT22;9818;48.382;10.850;2022-12-07T01:35:29;3.20;99.90
19365;DHT22;9818;48.382;10.850;2022-12-07T01:38:00;3.20;99.90
19365;DHT22;9818;48.382;10.850;2022-12-07T01:40:29;3.20;99.90
19365;DHT22;9818;48.382;10.850;2022-12-07T01:42:58;3.20;99.90
19365;DHT22;9818;48.382;10.850;2022-12-07T01:45:44;3.20;99.90
19365;DHT22;9818;48.382;10.850;2022-12-07T01:48:16;3.20;99.90
19365;DHT22;9818;48.382;10.850;2022-12-07T01:50:48;3.20;99.90
19365;DHT22;9818;48.382;10.850;2022-12-07T01:53:21;3.20;99.90
19365;DHT22;9818;48.382;10.850;2022-12-07T01:55:53;3.20;99.90
19365;DHT22;9818;48.382;10.850;2022-12-07T01:58:23;3.20;99.90
19365;DHT22;9818;48.382;10.850;2022-12-07T02:00:52;3.30;99.90
19365;DHT22;9818;48.382;10.850;2022-12-07T02:03:25;3.30;99.90
19365;DHT22;9818;48.382;10.850;2022-12-07T02:05:55;3.30;99.90
19365;DHT22;9818;48.382;10.850;2022-12-07T02:08:27;3.30;99.90
19365;DHT22;9818;48.382;10.850;2022-12-07T02:10:56;3.30;99.90
19365;DHT22;9818;48.382;10.850;2022-12-07T02:13:27;3.30;99.90
19365;DHT22;9818;48.382;10.850;2022-12-07T02:16:13;3.30;99.90
19365;DHT22;9818;48.382;10.850;2022-12-07T02:18:56;3.30;99.90
19365;DHT22;9818;48.382;10.850;2022-12-07T02:21:34;3.30;99.90
19365;DHT22;9818;48.382;10.850;2022-12-07T02:24:29;3.30;99.90
19365;DHT22;9818;48.382;10.850;2022-12-07T02:27:34;3.30;99.90
19365;DHT22;9818;48.382;10.850;2022-12-07T02:30:09;3.30;99.90
19365;DHT22;9818;48.382;10.850;2022-12-07T02:32:44;3.40;99.90
19365;DHT22;9818;48.382;10.850;2022-12-07T02:35:18;3.40;99.90
19365;DHT22;9818;48.382;10.850;2022-12-07T02:37:53;3.30;99.90
19365;DHT22;9818;48.382;10.850;2022-12-07T02:40:28;3.30;99.90
19365;DHT22;9818;48.382;10.850;2022-12-07T02:43:02;3.40;99.90
19365;DHT22;9818;48.382;10.850;2022-12-07T02:45:36;3.40;99.90
19365;DHT22;9818;48.382;10.850;2022-12-07T02:48:09;3.30;99.90
19365;DHT22;9818;48.382;10.850;2022-12-07T02:50:38;3.40;99.90
19365;DHT22;9818;48.382;10.850;2022-12-07T02:53:31;3.30;99.90
19365;DHT22;9818;48.382;10.850;2022-12-07T02:56:05;3.30;99.90
19365;DHT22;9818;48.382;10.850;2022-12-07T02:58:45;3.30;99.90
19365;DHT22;9818;48.382;10.850;2022-12-07T03:01:28;3.30;99.90
19365;DHT22;9818;48.382;10.850;2022-12-07T03:04:08;3.20;99.90
19365;DHT22;9818;48.382;10.850;2022-12-07T03:06:43;3.20;99.90
19365;DHT22;9818;48.382;10.850;2022-12-07T03:09:21;3.20;99.90
19365;DHT22;9818;48.382;10.850;2022-12-07T03:12:00;3.20;99.90
19365;DHT22;9818;48.382;10.850;2022-12-07T03:14:36;3.20;99.90
19365;DHT22;9818;48.382;10.850;2022-12-07T03:17:13;3.10;99.90
19365;DHT22;9818;48.382;10.850;2022-12-07T03:19:45;3.20;99.90
19365;DHT22;9818;48.382;10.850;2022-12-07T03:22:15;3.20;99.90
19365;DHT22;9818;48.382;10.850;2022-12-07T03:24:47;3.20;99.90
19365;DHT22;9818;48.382;10.850;2022-12-07T03:27:21;3.20;99.90
19365;DHT22;9818;48.382;10.850;2022-12-07T03:29:55;3.10;99.90
19365;DHT22;9818;48.382;10.850;2022-12-07T03:32:32;3.10;99.90
19365;DHT22;9818;48.382;10.850;2022-12-07T03:35:07;3.20;99.90
19365;DHT22;9818;48.382;10.850;2022-12-07T03:37:40;3.20;99.90
19365;DHT22;9818;48.382;10.850;2022-12-07T03:40:14;3.20;99.90
19365;DHT22;9818;48.382;10.850;2022-12-07T03:42:45;3.20;99.90
19365;DHT22;9818;48.382;10.850;2022-12-07T03:45:14;3.10;99.90
19365;DHT22;9818;48.382;10.850;2022-12-07T03:47:47;3.10;99.90
19365;DHT22;9818;48.382;10.850;2022-12-07T03:50:27;3.10;99.90
19365;DHT22;9818;48.382;10.850;2022-12-07T03:52:59;3.10;99.90
19365;DHT22;9818;48.382;10.850;2022-12-07T03:55:33;3.20;99.90
19365;DHT22;9818;48.382;10.850;2022-12-07T03:58:05;3.10;99.90
19365;DHT22;9818;48.382;10.850;2022-12-07T04:00:34;3.10;99.90
19365;DHT22;9818;48.382;10.850;2022-12-07T04:03:06;3.10;99.90
19365;DHT22;9818;48.382;10.850;2022-12-07T04:05:35;3.20;99.90
19365;DHT22;9818;48.382;10.850;2022-12-07T04:08:04;3.20;99.90
19365;DHT22;9818;48.382;10.850;2022-12-07T04:10:32;3.20;99.90
19365;DHT22;9818;48.382;10.850;2022-12-07T04:13:01;3.30;99.90
19365;DHT22;9818;48.382;10.850;2022-12-07T04:15:30;3.20;99.90
19365;DHT22;9818;48.382;10.850;2022-12-07T04:17:58;3.20;99.90
19365;DHT22;9818;48.382;10.850;2022-12-07T04:20:30;3.10;99.90
19365;DHT22;9818;48.382;10.850;2022-12-07T04:22:58;3.20;99.90
19365;DHT22;9818;48.382;10.850;2022-12-07T04:25:27;3.10;99.90
19365;DHT22;9818;48.382;10.850;2022-12-07T04:27:56;3.10;99.90
19365;DHT22;9818;48.382;10.850;2022-12-07T04:30:24;3.10;99.90
19365;DHT22;9818;48.382;10.850;2022-12-07T04:32:53;3.10;99.90
19365;DHT22;9818;48.382;10.850;2022-12-07T04:35:21;3.10;99.90
19365;DHT22;9818;48.382;10.850;2022-12-07T04:37:53;3.10;99.90
19365;DHT22;9818;48.382;10.850;2022-12-07T04:40:21;3.10;99.90
19365;DHT22;9818;48.382;10.850;2022-12-07T04:42:50;3.10;99.90
19365;DHT22;9818;48.382;10.850;2022-12-07T04:45:19;3.10;99.90
19365;DHT22;9818;48.382;10.850;2022-12-07T04:47:47;3.10;99.90
19365;DHT22;9818;48.382;10.850;2022-12-07T04:50:16;3.20;99.90
19365;DHT22;9818;48.382;10.850;2022-12-07T04:52:45;3.20;99.90
19365;DHT22;9818;48.382;10.850;2022-12-07T04:55:16;3.20;99.90
19365;DHT22;9818;48.382;10.850;2022-12-07T04:57:45;3.10;99.90
19365;DHT22;9818;48.382;10.850;2022-12-07T05:00:13;3.10;99.90
19365;DHT22;9818;48.382;10.850;2022-12-07T05:02:42;3.10;99.90
19365;DHT22;9818;48.382;10.850;2022-12-07T05:05:11;3.20;99.90
19365;DHT22;9818;48.382;10.850;2022-12-07T05:07:39;3.10;99.90
19365;DHT22;9818;48.382;10.850;2022-12-07T05:10:09;3.10;99.90
19365;DHT22;9818;48.382;10.850;2022-12-07T05:12:40;3.10;99.90
19365;DHT22;9818;48.382;10.850;2022-12-07T05:15:09;3.10;99.90
19365;DHT22;9818;48.382;10.850;2022-12-07T05:17:38;3.10;99.90
19365;DHT22;9818;48.382;10.850;2022-12-07T05:20:08;3.10;99.90
19365;DHT22;9818;48.382;10.850;2022-12-07T05:22:37;3.10;99.90
19365;DHT22;9818;48.382;10.850;2022-12-07T05:25:06;3.00;99.90
19365;DHT22;9818;48.382;10.850;2022-12-07T05:27:34;3.00;99.90
19365;DHT22;9818;48.382;10.850;2022-12-07T05:30:07;3.00;99.90
19365;DHT22;9818;48.382;10.850;2022-12-07T05:32:36;3.00;99.90
19365;DHT22;9818;48.382;10.850;2022-12-07T05:35:05;3.00;99.90
19365;DHT22;9818;48.382;10.850;2022-12-07T05:37:34;3.00;99.90
19365;DHT22;9818;48.382;10.850;2022-12-07T05:40:04;2.90;99.90
19365;DHT22;9818;48.382;10.850;2022-12-07T05:42:33;2.90;99.90
19365;DHT22;9818;48.382;10.850;2022-12-07T05:45:06;2.90;99.90
19365;DHT22;9818;48.382;10.850;2022-12-07T05:47:35;2.90;99.90
19365;DHT22;9818;48.382;10.850;2022-12-07T05:50:05;2.90;99.90
19365;DHT22;9818;48.382;10.850;2022-12-07T05:52:34;2.80;99.90
19365;DHT22;9818;48.382;10.850;2022-12-07T05:55:03;2.80;99.90
19365;DHT22;9818;48.382;10.850;2022-12-07T05:57:32;2.70;99.90
19365;DHT22;9818;48.382;10.850;2022-12-07T06:00:01;2.70;99.90
19365;DHT22;9818;48.382;10.850;2022-12-07T06:02:31;2.70;99.90
19365;DHT22;9818;48.382;10.850;2022-12-07T06:04:59;2.70;99.90
19365;DHT22;9818;48.382;10.850;2022-12-07T06:07:28;2.60;99.90
19365;DHT22;9818;48.382;10.850;2022-12-07T06:09:57;2.60;99.90
19365;DHT22;9818;48.382;10.850;2022-12-07T06:12:25;2.60;99.90
19365;DHT22;9818;48.382;10.850;2022-12-07T06:15:00;2.60;99.90
19365;DHT22;9818;48.382;10.850;2022-12-07T06:17:32;2.50;99.90
19365;DHT22;9818;48.382;10.850;2022-12-07T06:20:00;2.50;99.90
19365;DHT22;9818;48.382;10.850;2022-12-07T06:22:29;2.40;99.90
19365;DHT22;9818;48.382;10.850;2022-12-07T06:24:58;2.40;99.90
19365;DHT22;9818;48.382;10.850;2022-12-07T06:27:27;2.40;99.90
19365;DHT22;9818;48.382;10.850;2022-12-07T06:29:55;2.30;99.90
19365;DHT22;9818;48.382;10.850;2022-12-07T06:32:24;2.20;99.90
19365;DHT22;9818;48.382;10.850;2022-12-07T06:34:55;2.20;99.90
19365;DHT22;9818;48.382;10.850;2022-12-07T06:37:24;2.20;99.90
19365;DHT22;9818;48.382;10.850;2022-12-07T06:39:52;2.10;99.90
19365;DHT22;9818;48.382;10.850;2022-12-07T06:42:21;2.20;99.90
19365;DHT22;9818;48.382;10.850;2022-12-07T06:44:50;2.10;99.90
19365;DHT22;9818;48.382;10.850;2022-12-07T06:47:19;2.10;99.90
19365;DHT22;9818;48.382;10.850;2022-12-07T06:49:47;2.00;99.90
19365;DHT22;9818;48.382;10.850;2022-12-07T06:52:19;2.00;99.90
19365;DHT22;9818;48.382;10.850;2022-12-07T06:54:47;1.90;99.90
19365;DHT22;9818;48.382;10.850;2022-12-07T06:57:16;1.90;99.90
19365;DHT22;9818;48.382;10.850;2022-12-07T06:59:45;1.80;99.90
19365;DHT22;9818;48.382;10.850;2022-12-07T07:02:14;1.80;99.90
19365;DHT22;9818;48.382;10.850;2022-12-07T07:04:43;1.80;99.90
19365;DHT22;9818;48.382;10.850;2022-12-07T07:07:12;1.70;99.90
19365;DHT22;9818;48.382;10.850;2022-12-07T07:09:43;1.70;99.90
19365;DHT22;9818;48.382;10.850;2022-12-07T07:12:12;1.70;99.90
19365;DHT22;9818;48.382;10.850;2022-12-07T07:14:40;1.70;99.90
19365;DHT22;9818;48.382;10.850;2022-12-07T07:17:09;1.60;99.90
19365;DHT22;9818;48.382;10.850;2022-12-07T07:19:38;1.60;99.90
19365;DHT22;9818;48.382;10.850;2022-12-07T07:22:07;1.60;99.90
19365;DHT22;9818;48.382;10.850;2022-12-07T07:24:35;1.60;99.90
19365;DHT22;9818;48.382;10.850;2022-12-07T07:27:06;1.60;99.90
19365;DHT22;9818;48.382;10.850;2022-12-07T07:29:35;1.60;99.90
19365;DHT22;9818;48.382;10.850;2022-12-07T07:32:04;1.50;99.90
19365;DHT22;9818;48.382;10.850;2022-12-07T07:34:33;1.60;99.90
19365;DHT22;9818;48.382;10.850;2022-12-07T07:37:02;1.60;99.90
19365;DHT22;9818;48.382;10.850;2022-12-07T07:39:31;1.70;99.90
19365;DHT22;9818;48.382;10.850;2022-12-07T07:41:59;1.90;99.90
19365;DHT22;9818;48.382;10.850;2022-12-07T07:44:30;1.90;99.90
19365;DHT22;9818;48.382;10.850;2022-12-07T07:46:59;2.00;99.90
19365;DHT22;9818;48.382;10.850;2022-12-07T07:49:28;2.10;99.90
19365;DHT22;9818;48.382;10.850;2022-12-07T07:51:57;2.10;99.90
19365;DHT22;9818;48.382;10.850;2022-12-07T07:54:25;2.20;99.90
19365;DHT22;9818;48.382;10.850;2022-12-07T07:56:54;2.10;99.90
19365;DHT22;9818;48.382;10.850;2022-12-07T07:59:23;2.20;99.90
19365;DHT22;9818;48.382;10.850;2022-12-07T08:01:54;2.10;99.90
19365;DHT22;9818;48.382;10.850;2022-12-07T08:04:23;2.20;99.90
19365;DHT22;9818;48.382;10.850;2022-12-07T08:06:51;2.30;99.90
19365;DHT22;9818;48.382;10.850;2022-12-07T08:09:20;2.30;99.90
19365;DHT22;9818;48.382;10.850;2022-12-07T08:11:49;2.60;99.90
19365;DHT22;9818;48.382;10.850;2022-12-07T08:14:17;2.70;99.90
19365;DHT22;9818;48.382;10.850;2022-12-07T08:16:46;2.60;99.90
19365;DHT22;9818;48.382;10.850;2022-12-07T08:19:17;2.60;99.90
19365;DHT22;9818;48.382;10.850;2022-12-07T08:21:46;2.60;99.90
19365;DHT22;9818;48.382;10.850;2022-12-07T08:24:15;2.70;99.90
19365;DHT22;9818;48.382;10.850;2022-12-07T08:26:44;2.80;99.90
19365;DHT22;9818;48.382;10.850;2022-12-07T08:29:12;3.10;99.90
19365;DHT22;9818;48.382;10.850;2022-12-07T08:31:41;3.60;99.90
19365;DHT22;9818;48.382;10.850;2022-12-07T08:34:10;4.20;99.90
19365;DHT22;9818;48.382;10.850;2022-12-07T08:36:41;4.10;99.90
19365;DHT22;9818;48.382;10.850;2022-12-07T08:39:10;5.20;99.90
19365;DHT22;9818;48.382;10.850;2022-12-07T08:41:39;6.50;99.90
19365;DHT22;9818;48.382;10.850;2022-12-07T08:44:07;7.20;99.90
19365;DHT22;9818;48.382;10.850;2022-12-07T08:46:38;7.10;99.90
19365;DHT22;9818;48.382;10.850;2022-12-07T08:49:10;6.30;99.90
19365;DHT22;9818;48.382;10.850;2022-12-07T08:51:43;7.10;99.90
19365;DHT22;9818;48.382;10.850;2022-12-07T08:54:13;8.20;99.90
19365;DHT22;9818;48.382;10.850;2022-12-07T08:56:43;9.00;99.90
19365;DHT22;9818;48.382;10.850;2022-12-07T08:59:15;10.00;99.90
19365;DHT22;9818;48.382;10.850;2022-12-07T09:01:44;9.60;99.90
19365;DHT22;9818;48.382;10.850;2022-12-07T09:04:12;10.00;99.90
19365;DHT22;9818;48.382;10.850;2022-12-07T09:06:44;11.70;99.90
19365;DHT22;9818;48.382;10.850;2022-12-07T09:09:14;12.30;99.90
19365;DHT22;9818;48.382;10.850;2022-12-07T09:11:42;12.80;99.90
19365;DHT22;9818;48.382;10.850;2022-12-07T09:14:12;12.90;99.90
19365;DHT22;9818;48.382;10.850;2022-12-07T09:16:41;12.00;99.90
19365;DHT22;9818;48.382;10.850;2022-12-07T09:19:09;11.40;99.90
19365;DHT22;9818;48.382;10.850;2022-12-07T09:21:38;12.30;99.90
19365;DHT22;9818;48.382;10.850;2022-12-07T09:24:09;11.50;99.90
19365;DHT22;9818;48.382;10.850;2022-12-07T09:26:39;11.20;99.90
19365;DHT22;9818;48.382;10.850;2022-12-07T09:29:07;12.30;99.90
19365;DHT22;9818;48.382;10.850;2022-12-07T09:31:37;12.30;99.90
19365;DHT22;9818;48.382;10.850;2022-12-07T09:34:05;12.20;99.90
19365;DHT22;9818;48.382;10.850;2022-12-07T09:36:34;12.40;99.90
19365;DHT22;9818;48.382;10.850;2022-12-07T09:39:03;13.00;99.90
19365;DHT22;9818;48.382;10.850;2022-12-07T09:41:37;12.70;99.90
19365;DHT22;9818;48.382;10.850;2022-12-07T09:44:10;13.30;99.90
19365;DHT22;9818;48.382;10.850;2022-12-07T09:46:41;13.60;99.90
19365;DHT22;9818;48.382;10.850;2022-12-07T09:49:13;13.10;99.90
19365;DHT22;9818;48.382;10.850;2022-12-07T09:51:43;14.00;99.90
19365;DHT22;9818;48.382;10.850;2022-12-07T09:54:13;14.80;99.90
19365;DHT22;9818;48.382;10.850;2022-12-07T09:56:45;13.90;99.90
19365;DHT22;9818;48.382;10.850;2022-12-07T09:59:16;12.30;99.90
19365;DHT22;9818;48.382;10.850;2022-12-07T10:01:49;12.50;99.90
19365;DHT22;9818;48.382;10.850;2022-12-07T10:04:18;12.70;99.90
19365;DHT22;9818;48.382;10.850;2022-12-07T10:06:48;11.90;99.90
19365;DHT22;9818;48.382;10.850;2022-12-07T10:09:18;11.60;99.90
19365;DHT22;9818;48.382;10.850;2022-12-07T10:12:03;11.70;99.90
19365;DHT22;9818;48.382;10.850;2022-12-07T10:14:34;12.40;99.90
19365;DHT22;9818;48.382;10.850;2022-12-07T10:17:29;12.00;99.90
19365;DHT22;9818;48.382;10.850;2022-12-07T10:20:21;11.80;99.90
19365;DHT22;9818;48.382;10.850;2022-12-07T10:23:00;10.80;99.90
19365;DHT22;9818;48.382;10.850;2022-12-07T10:25:31;10.70;99.90
19365;DHT22;9818;48.382;10.850;2022-12-07T10:28:12;10.00;99.90
19365;DHT22;9818;48.382;10.850;2022-12-07T10:30:48;10.00;99.90
19365;DHT22;9818;48.382;10.850;2022-12-07T10:33:31;10.00;99.90
19365;DHT22;9818;48.382;10.850;2022-12-07T10:36:00;9.80;99.90
19365;DHT22;9818;48.382;10.850;2022-12-07T10:38:29;8.90;99.90
19365;DHT22;9818;48.382;10.850;2022-12-07T10:41:05;8.70;99.90
19365;DHT22;9818;48.382;10.850;2022-12-07T10:43:37;8.30;99.90
19365;DHT22;9818;48.382;10.850;2022-12-07T10:46:22;7.80;99.90
19365;DHT22;9818;48.382;10.850;2022-12-07T10:48:55;8.10;99.90
19365;DHT22;9818;48.382;10.850;2022-12-07T10:51:27;8.10;99.90
19365;DHT22;9818;48.382;10.850;2022-12-07T10:54:00;8.10;99.90
19365;DHT22;9818;48.382;10.850;2022-12-07T10:56:35;8.00;99.90
19365;DHT22;9818;48.382;10.850;2022-12-07T11:01:56;7.90;99.90
19365;DHT22;9818;48.382;10.850;2022-12-07T11:04:29;7.80;99.90
19365;DHT22;9818;48.382;10.850;2022-12-07T11:07:02;8.20;99.90
19365;DHT22;9818;48.382;10.850;2022-12-07T11:09:47;8.00;99.90
19365;DHT22;9818;48.382;10.850;2022-12-07T11:12:20;8.30;99.90
19365;DHT22;9818;48.382;10.850;2022-12-07T11:14:54;8.10;99.90
19365;DHT22;9818;48.382;10.850;2022-12-07T11:17:28;8.00;99.90
19365;DHT22;9818;48.382;10.850;2022-12-07T11:20:02;7.90;99.90
19365;DHT22;9818;48.382;10.850;2022-12-07T11:22:35;7.90;99.90
19365;DHT22;9818;48.382;10.850;2022-12-07T11:25:13;7.90;99.90
19365;DHT22;9818;48.382;10.850;2022-12-07T11:27:44;7.90;99.90
19365;DHT22;9818;48.382;10.850;2022-12-07T11:30:16;7.60;99.90
19365;DHT22;9818;48.382;10.850;2022-12-07T11:32:55;7.50;99.90
19365;DHT22;9818;48.382;10.850;2022-12-07T11:35:30;7.50;99.90
19365;DHT22;9818;48.382;10.850;2022-12-07T11:38:10;7.30;99.90
19365;DHT22;9818;48.382;10.850;2022-12-07T11:40:40;7.10;99.90
19365;DHT22;9818;48.382;10.850;2022-12-07T11:43:11;7.50;99.90
19365;DHT22;9818;48.382;10.850;2022-12-07T11:45:42;7.60;99.90
19365;DHT22;9818;48.382;10.850;2022-12-07T11:48:14;7.70;99.90
19365;DHT22;9818;48.382;10.850;2022-12-07T11:50:46;7.90;99.90
19365;DHT22;9818;48.382;10.850;2022-12-07T11:53:17;7.20;99.90
19365;DHT22;9818;48.382;10.850;2022-12-07T11:55:48;7.30;99.90
19365;DHT22;9818;48.382;10.850;2022-12-07T11:58:24;7.10;99.90
19365;DHT22;9818;48.382;10.850;2022-12-07T12:01:01;7.30;99.90
19365;DHT22;9818;48.382;10.850;2022-12-07T12:03:36;7.30;99.90
19365;DHT22;9818;48.382;10.850;2022-12-07T12:06:06;7.30;99.90
19365;DHT22;9818;48.382;10.850;2022-12-07T12:08:36;7.20;99.90
19365;DHT22;9818;48.382;10.850;2022-12-07T12:11:08;7.00;99.90
19365;DHT22;9818;48.382;10.850;2022-12-07T12:13:55;7.10;99.90
19365;DHT22;9818;48.382;10.850;2022-12-07T12:16:37;7.10;99.90
19365;DHT22;9818;48.382;10.850;2022-12-07T12:19:14;7.40;99.90
19365;DHT22;9818;48.382;10.850;2022-12-07T12:21:47;7.60;99.90
19365;DHT22;9818;48.382;10.850;2022-12-07T12:24:16;7.10;99.90
19365;DHT22;9818;48.382;10.850;2022-12-07T12:26:48;7.10;99.90
19365;DHT22;9818;48.382;10.850;2022-12-07T12:29:19;7.10;99.90
19365;DHT22;9818;48.382;10.850;2022-12-07T12:32:04;7.10;99.90
19365;DHT22;9818;48.382;10.850;2022-12-07T12:34:40;6.80;99.90
19365;DHT22;9818;48.382;10.850;2022-12-07T12:42:43;6.70;99.90
19365;DHT22;9818;48.382;10.850;2022-12-07T12:45:19;6.80;99.90
19365;DHT22;9818;48.382;10.850;2022-12-07T12:47:55;6.90;99.90
19365;DHT22;9818;48.382;10.850;2022-12-07T12:50:28;6.80;99.90
19365;DHT22;9818;48.382;10.850;2022-12-07T12:52:58;6.50;99.90
19365;DHT22;9818;48.382;10.850;2022-12-07T12:58:30;6.30;99.90
19365;DHT22;9818;48.382;10.850;2022-12-07T13:03:50;6.40;99.90
19365;DHT22;9818;48.382;10.850;2022-12-07T13:06:31;6.50;99.90
19365;DHT22;9818;48.382;10.850;2022-12-07T13:09:03;6.60;99.90
19365;DHT22;9818;48.382;10.850;2022-12-07T13:11:32;6.70;99.90
19365;DHT22;9818;48.382;10.850;2022-12-07T13:16:51;6.70;99.90
19365;DHT22;9818;48.382;10.850;2022-12-07T13:22:07;6.20;99.90
19365;DHT22;9818;48.382;10.850;2022-12-07T13:24:54;6.30;99.90
19365;DHT22;9818;48.382;10.850;2022-12-07T13:27:28;6.20;99.90
19365;DHT22;9818;48.382;10.850;2022-12-07T13:29:57;6.00;99.90
19365;DHT22;9818;48.382;10.850;2022-12-07T13:32:28;6.00;99.90
19365;DHT22;9818;48.382;10.850;2022-12-07T13:34:57;5.90;99.90
19365;DHT22;9818;48.382;10.850;2022-12-07T13:37:28;6.00;99.90
19365;DHT22;9818;48.382;10.850;2022-12-07T13:39:58;6.20;99.90
19365;DHT22;9818;48.382;10.850;2022-12-07T13:42:27;6.00;99.90
19365;DHT22;9818;48.382;10.850;2022-12-07T13:44:57;5.90;99.90
19365;DHT22;9818;48.382;10.850;2022-12-07T13:47:30;6.10;99.90
19365;DHT22;9818;48.382;10.850;2022-12-07T13:50:00;6.20;99.90
19365;DHT22;9818;48.382;10.850;2022-12-07T13:52:31;6.10;99.90
19365;DHT22;9818;48.382;10.850;2022-12-07T13:55:00;6.00;99.90
19365;DHT22;9818;48.382;10.850;2022-12-07T13:57:29;6.00;99.90
19365;DHT22;9818;48.382;10.850;2022-12-07T13:59:59;6.00;99.90
19365;DHT22;9818;48.382;10.850;2022-12-07T14:02:29;6.00;99.90
19365;DHT22;9818;48.382;10.850;2022-12-07T14:05:05;6.00;99.90
19365;DHT22;9818;48.382;10.850;2022-12-07T14:07:47;5.80;99.90
19365;DHT22;9818;48.382;10.850;2022-12-07T14:10:22;5.90;99.90
19365;DHT22;9818;48.382;10.850;2022-12-07T14:12:50;5.70;99.90
19365;DHT22;9818;48.382;10.850;2022-12-07T14:15:19;5.60;99.90
19365;DHT22;9818;48.382;10.850;2022-12-07T14:17:51;5.80;99.90
19365;DHT22;9818;48.382;10.850;2022-12-07T14:20:29;5.90;99.90
19365;DHT22;9818;48.382;10.850;2022-12-07T14:23:01;5.90;99.90
19365;DHT22;9818;48.382;10.850;2022-12-07T14:25:44;5.70;99.90
19365;DHT22;9818;48.382;10.850;2022-12-07T14:28:24;5.60;99.90
19365;DHT22;9818;48.382;10.850;2022-12-07T14:30:53;5.50;99.90
19365;DHT22;9818;48.382;10.850;2022-12-07T14:33:21;5.60;99.90
19365;DHT22;9818;48.382;10.850;2022-12-07T14:35:51;5.70;99.90
19365;DHT22;9818;48.382;10.850;2022-12-07T14:38:23;5.80;99.90
19365;DHT22;9818;48.382;10.850;2022-12-07T14:40:52;5.90;99.90
19365;DHT22;9818;48.382;10.850;2022-12-07T14:43:41;5.90;99.90
19365;DHT22;9818;48.382;10.850;2022-12-07T14:46:09;6.10;99.90
19365;DHT22;9818;48.382;10.850;2022-12-07T14:48:37;6.00;99.90
19365;DHT22;9818;48.382;10.850;2022-12-07T14:51:07;6.10;99.90
19365;DHT22;9818;48.382;10.850;2022-12-07T14:53:41;5.90;99.90
19365;DHT22;9818;48.382;10.850;2022-12-07T14:56:11;5.90;99.90
19365;DHT22;9818;48.382;10.850;2022-12-07T14:58:39;5.90;99.90
19365;DHT22;9818;48.382;10.850;2022-12-07T15:01:08;5.70;99.90
19365;DHT22;9818;48.382;10.850;2022-12-07T15:03:36;5.50;99.90
19365;DHT22;9818;48.382;10.850;2022-12-07T15:06:05;5.40;99.90
19365;DHT22;9818;48.382;10.850;2022-12-07T15:08:34;5.40;99.90
19365;DHT22;9818;48.382;10.850;2022-12-07T15:11:05;5.40;99.90
19365;DHT22;9818;48.382;10.850;2022-12-07T15:13:33;5.30;99.90
19365;DHT22;9818;48.382;10.850;2022-12-07T15:16:16;5.30;99.90
19365;DHT22;9818;48.382;10.850;2022-12-07T15:18:47;5.30;99.90
19365;DHT22;9818;48.382;10.850;2022-12-07T15:21:15;5.30;99.90
19365;DHT22;9818;48.382;10.850;2022-12-07T15:23:44;5.10;99.90
19365;DHT22;9818;48.382;10.850;2022-12-07T15:26:16;5.00;99.90
19365;DHT22;9818;48.382;10.850;2022-12-07T15:28:45;4.90;99.90
19365;DHT22;9818;48.382;10.850;2022-12-07T15:31:14;4.90;99.90
19365;DHT22;9818;48.382;10.850;2022-12-07T15:33:43;4.90;99.90
19365;DHT22;9818;48.382;10.850;2022-12-07T15:36:15;4.80;99.90
19365;DHT22;9818;48.382;10.850;2022-12-07T15:38:46;4.70;99.90
19365;DHT22;9818;48.382;10.850;2022-12-07T15:41:17;4.60;99.90
19365;DHT22;9818;48.382;10.850;2022-12-07T15:43:45;4.60;99.90
19365;DHT22;9818;48.382;10.850;2022-12-07T15:46:29;4.60;99.90
19365;DHT22;9818;48.382;10.850;2022-12-07T15:48:57;4.50;99.90
19365;DHT22;9818;48.382;10.850;2022-12-07T15:51:26;4.40;99.90
19365;DHT22;9818;48.382;10.850;2022-12-07T15:53:54;4.30;99.90
19365;DHT22;9818;48.382;10.850;2022-12-07T15:56:25;4.30;99.90
19365;DHT22;9818;48.382;10.850;2022-12-07T15:58:53;4.20;99.90
19365;DHT22;9818;48.382;10.850;2022-12-07T16:01:23;4.20;99.90
19365;DHT22;9818;48.382;10.850;2022-12-07T16:03:52;4.20;99.90
19365;DHT22;9818;48.382;10.850;2022-12-07T16:06:21;4.10;99.90
19365;DHT22;9818;48.382;10.850;2022-12-07T16:08:49;4.10;99.90
19365;DHT22;9818;48.382;10.850;2022-12-07T16:11:18;4.00;99.90
19365;DHT22;9818;48.382;10.850;2022-12-07T16:13:49;4.00;99.90
19365;DHT22;9818;48.382;10.850;2022-12-07T16:16:18;3.90;99.90
19365;DHT22;9818;48.382;10.850;2022-12-07T16:18:47;3.90;99.90
19365;DHT22;9818;48.382;10.850;2022-12-07T16:21:16;3.90;99.90
19365;DHT22;9818;48.382;10.850;2022-12-07T16:23:45;3.80;99.90
19365;DHT22;9818;48.382;10.850;2022-12-07T16:26:14;3.70;99.90
19365;DHT22;9818;48.382;10.850;2022-12-07T16:28:43;3.70;99.90
19365;DHT22;9818;48.382;10.850;2022-12-07T16:31:15;3.70;99.90
19365;DHT22;9818;48.382;10.850;2022-12-07T16:33:44;3.60;99.90
19365;DHT22;9818;48.382;10.850;2022-12-07T16:36:13;3.60;99.90
19365;DHT22;9818;48.382;10.850;2022-12-07T16:38:42;3.60;99.90
19365;DHT22;9818;48.382;10.850;2022-12-07T16:41:11;3.60;99.90